Time;durP1;ratioP1;P1;durP2;ratioP2;P2;SDS_P1;SDS_P2;PMS_P1;PMS_P2;Temp;Humidity;BMP_temperature;BMP_pressure;BME280_temperature;BME280_humidity;BME280_pressure;Samples;Min_cycle;Max_cycle;Signal;HPM_P1;HPM_P2
2022/04/11 00:02:00;;;;;;;5.80;1.83;;;6.50;99.90;;;;;;5094652;28;20448;-38
2022/04/11 00:04:27;;;;;;;3.10;1.48;;;6.50;99.90;;;;;;5094405;28;20464;-38
2022/04/11 00:06:53;;;;;;;4.07;1.33;;;6.50;99.90;;;;;;5092477;28;20331;-35
2022/04/11 00:09:19;;;;;;;4.20;1.90;;;6.50;99.90;;;;;;5091970;28;20036;-38
2022/04/11 00:11:44;;;;;;;2.13;1.73;;;6.50;99.90;;;;;;5093656;28;20077;-43
2022/04/11 00:14:10;;;;;;;3.10;1.55;;;6.50;99.90;;;;;;5092276;28;20483;-48
2022/04/11 00:16:36;;;;;;;3.08;1.48;;;6.50;99.90;;;;;;5082473;28;20024;-37
2022/04/11 00:19:02;;;;;;;3.72;1.75;;;6.50;99.90;;;;;;5089641;28;20051;-38
2022/04/11 00:21:28;;;;;;;6.15;1.98;;;6.40;99.90;;;;;;5093307;28;20027;-37
2022/04/11 00:23:53;;;;;;;2.17;1.83;;;6.40;99.90;;;;;;5092121;28;20111;-37
2022/04/11 00:26:19;;;;;;;10.07;1.70;;;6.40;99.90;;;;;;5093847;28;20020;-38
2022/04/11 00:28:45;;;;;;;2.22;2.03;;;6.30;99.90;;;;;;5087185;28;20031;-37
2022/04/11 00:31:10;;;;;;;3.05;2.25;;;6.30;99.90;;;;;;5078213;28;20024;-34
2022/04/11 00:33:36;;;;;;;5.78;2.05;;;6.30;99.90;;;;;;5094137;28;20081;-37
2022/04/11 00:36:01;;;;;;;3.72;1.90;;;6.30;99.90;;;;;;5092725;28;20114;-38
2022/04/11 00:38:27;;;;;;;5.30;2.08;;;6.30;99.90;;;;;;5092685;28;20031;-37
2022/04/11 00:40:53;;;;;;;6.80;2.15;;;6.30;99.90;;;;;;5091639;28;20028;-39
2022/04/11 00:43:39;;;;;;;3.03;2.08;;;6.30;99.90;;;;;;5094902;28;21424;-37
2022/04/11 00:46:06;;;;;;;5.57;2.20;;;6.20;99.90;;;;;;5093690;28;20076;-38
2022/04/11 00:48:32;;;;;;;9.25;2.28;;;6.20;99.90;;;;;;5093861;28;20027;-38
2022/04/11 00:51:11;;;;;;;6.93;2.50;;;6.20;99.90;;;;;;5080621;28;20028;-36
2022/04/11 00:53:41;;;;;;;4.65;2.17;;;6.20;99.90;;;;;;5089816;28;20081;-38
2022/04/11 00:56:10;;;;;;;4.45;2.55;;;6.10;99.90;;;;;;5093154;28;20085;-36
2022/04/11 00:58:35;;;;;;;5.93;2.28;;;6.10;99.90;;;;;;5091064;28;20400;-37
2022/04/11 01:01:02;;;;;;;6.10;2.30;;;6.10;99.90;;;;;;5088419;28;20032;-37
2022/04/11 01:03:28;;;;;;;6.93;2.35;;;6.10;99.90;;;;;;5092947;28;20484;-37
2022/04/11 01:05:53;;;;;;;5.75;2.00;;;6.00;99.90;;;;;;5080899;28;20481;-37
2022/04/11 01:08:19;;;;;;;5.18;2.78;;;6.00;99.90;;;;;;5087677;28;20020;-39
2022/04/11 01:10:45;;;;;;;4.38;2.50;;;6.00;99.90;;;;;;5089733;28;20558;-37
2022/04/11 01:13:11;;;;;;;9.35;3.00;;;6.00;99.90;;;;;;5092013;28;20062;-36
2022/04/11 01:15:37;;;;;;;5.90;3.00;;;5.90;99.90;;;;;;5089716;28;20198;-37
2022/04/11 01:18:03;;;;;;;8.65;2.97;;;5.90;99.90;;;;;;5091040;28;20034;-38
2022/04/11 01:20:29;;;;;;;8.75;3.05;;;5.90;99.90;;;;;;5092906;28;20032;-44
2022/04/11 01:22:55;;;;;;;6.13;3.53;;;5.90;99.90;;;;;;5093382;28;20024;-36
2022/04/11 01:25:20;;;;;;;8.73;2.65;;;5.90;99.90;;;;;;5092050;28;20025;-37
2022/04/11 01:27:46;;;;;;;3.78;2.80;;;5.80;99.90;;;;;;5092009;28;20036;-36
2022/04/11 01:30:14;;;;;;;5.28;2.67;;;5.80;99.90;;;;;;5092356;28;20028;-37
2022/04/11 01:32:58;;;;;;;4.15;2.63;;;5.80;99.90;;;;;;5092919;28;20020;-36
2022/04/11 01:35:26;;;;;;;3.20;2.67;;;5.80;99.90;;;;;;5093171;28;20503;-36
2022/04/11 01:37:52;;;;;;;;;;;5.80;99.90;;;;;;5092405;28;20020;-36
2022/04/11 01:40:18;;;;;;;7.63;2.90;;;5.80;99.90;;;;;;5092321;28;20378;-37
2022/04/11 01:42:44;;;;;;;6.00;3.25;;;5.70;99.90;;;;;;5091001;28;20472;-36
2022/04/11 01:45:11;;;;;;;10.30;3.63;;;5.80;99.90;;;;;;5092351;28;20065;-38
2022/04/11 01:47:41;;;;;;;3.75;2.72;;;5.80;99.90;;;;;;5092329;28;20108;-38
2022/04/11 01:50:10;;;;;;;6.88;3.13;;;5.70;99.90;;;;;;5092639;28;20032;-37
2022/04/11 01:52:36;;;;;;;4.82;3.17;;;5.80;99.90;;;;;;5091472;28;20024;-37
2022/04/11 01:55:03;;;;;;;5.15;3.45;;;5.80;99.90;;;;;;5083863;28;20480;-36
2022/04/11 01:57:30;;;;;;;4.53;3.28;;;5.70;99.90;;;;;;5082813;28;20069;-37
2022/04/11 01:59:55;;;;;;;4.03;3.33;;;5.70;99.90;;;;;;5091526;28;20146;-37
2022/04/11 02:02:21;;;;;;;5.40;3.10;;;5.70;99.90;;;;;;5092890;28;20485;-36
2022/04/11 02:04:46;;;;;;;5.70;3.42;;;5.70;99.90;;;;;;5092154;28;20032;-35
2022/04/11 02:07:12;;;;;;;6.10;3.67;;;5.70;99.90;;;;;;5092178;28;20028;-35
2022/04/11 02:09:37;;;;;;;6.65;3.10;;;5.70;99.90;;;;;;5091749;28;20028;-35
2022/04/11 02:12:03;;;;;;;8.43;3.10;;;5.70;99.90;;;;;;5092379;28;20036;-36
2022/04/11 02:14:29;;;;;;;4.68;3.08;;;5.70;99.90;;;;;;5090993;28;20064;-34
2022/04/11 02:16:55;;;;;;;3.15;2.80;;;5.70;99.90;;;;;;5091649;28;20495;-36
2022/04/11 02:19:21;;;;;;;7.53;3.65;;;5.70;99.90;;;;;;5092583;28;20040;-37
2022/04/11 02:21:46;;;;;;;8.18;3.10;;;5.60;99.90;;;;;;5092557;28;20533;-37
2022/04/11 02:24:12;;;;;;;5.03;3.25;;;5.60;99.90;;;;;;5092652;28;20066;-56
2022/04/11 02:26:37;;;;;;;6.38;2.70;;;5.60;99.90;;;;;;5092730;28;20028;-36
2022/04/11 02:29:03;;;;;;;5.00;2.50;;;5.50;99.90;;;;;;5088927;28;20039;-35
2022/04/11 02:31:28;;;;;;;6.80;3.05;;;5.50;99.90;;;;;;5090759;28;20097;-37
2022/04/11 02:33:54;;;;;;;6.50;3.00;;;5.50;99.90;;;;;;5092335;28;20081;-36
2022/04/11 02:36:20;;;;;;;4.20;2.45;;;5.50;99.90;;;;;;5091866;28;20480;-36
2022/04/11 02:38:45;;;;;;;5.85;2.80;;;5.50;99.90;;;;;;5091241;28;20027;-35
2022/04/11 02:41:11;;;;;;;4.82;3.20;;;5.40;99.90;;;;;;5092470;28;20024;-35
2022/04/11 02:43:36;;;;;;;6.18;2.83;;;5.40;99.90;;;;;;5093033;28;20024;-36
2022/04/11 02:46:02;;;;;;;8.07;2.70;;;5.40;99.90;;;;;;5095494;28;20023;-35
2022/04/11 02:48:28;;;;;;;5.95;2.67;;;5.40;99.90;;;;;;5094647;28;20058;-36
2022/04/11 02:50:53;;;;;;;8.63;2.70;;;5.40;99.90;;;;;;5090177;28;20431;-36
2022/04/11 02:53:19;;;;;;;5.57;2.60;;;5.40;99.90;;;;;;5083885;28;20063;-36
2022/04/11 02:55:44;;;;;;;6.97;3.20;;;5.40;99.90;;;;;;5094920;28;20032;-35
2022/04/11 02:58:10;;;;;;;4.07;3.00;;;5.40;99.90;;;;;;5095021;28;20039;-35
2022/04/11 03:00:36;;;;;;;4.32;2.58;;;5.40;99.90;;;;;;5095136;28;20472;-31
2022/04/11 03:03:02;;;;;;;9.52;3.20;;;5.40;99.90;;;;;;5095009;28;20024;-37
2022/04/11 03:05:27;;;;;;;4.63;2.67;;;5.40;99.90;;;;;;5095771;28;20153;-37
2022/04/11 03:07:53;;;;;;;2.55;2.35;;;5.30;99.90;;;;;;5092765;28;20407;-35
2022/04/11 03:10:19;;;;;;;4.15;2.90;;;5.30;99.90;;;;;;5082620;28;20032;-35
2022/04/11 03:12:45;;;;;;;6.25;2.97;;;5.30;99.90;;;;;;5095701;28;20027;-35
2022/04/11 03:15:10;;;;;;;4.05;2.88;;;5.20;99.90;;;;;;5093381;28;20483;-46
2022/04/11 03:17:36;;;;;;;4.35;3.13;;;5.20;99.90;;;;;;5094899;28;20028;-37
2022/04/11 03:20:02;;;;;;;4.72;3.35;;;5.20;99.90;;;;;;5094632;28;20051;-35
2022/04/11 03:22:28;;;;;;;5.22;3.15;;;5.10;99.90;;;;;;5095532;28;20028;-37
2022/04/11 03:24:54;;;;;;;6.03;3.45;;;5.10;99.90;;;;;;5094905;28;20502;-37
2022/04/11 03:27:19;;;;;;;7.32;3.08;;;5.20;99.90;;;;;;5094745;28;20083;-35
2022/04/11 03:29:45;;;;;;;6.55;3.22;;;5.20;99.90;;;;;;5095249;28;20395;-36
2022/04/11 03:32:10;;;;;;;3.25;2.53;;;5.20;99.90;;;;;;5095304;28;20131;-36
2022/04/11 03:34:36;;;;;;;4.38;2.90;;;5.10;99.90;;;;;;5093768;28;20020;-36
2022/04/11 03:37:02;;;;;;;4.30;3.15;;;5.10;99.90;;;;;;5095170;28;20050;-35
2022/04/11 03:39:28;;;;;;;6.57;3.30;;;5.10;99.90;;;;;;5094239;28;20034;-36
2022/04/11 03:41:54;;;;;;;7.78;3.33;;;5.10;99.90;;;;;;5094263;28;20017;-37
2022/04/11 03:44:19;;;;;;;8.15;3.70;;;5.10;99.90;;;;;;5093943;28;20018;-36
2022/04/11 03:46:45;;;;;;;6.28;3.65;;;5.10;99.90;;;;;;5094674;28;20395;-35
2022/04/11 03:49:10;;;;;;;5.43;3.20;;;5.10;99.90;;;;;;5093422;28;20028;-37
2022/04/11 03:51:36;;;;;;;4.63;3.38;;;5.00;99.90;;;;;;5094902;28;20515;-36
2022/04/11 03:54:02;;;;;;;11.25;3.55;;;5.00;99.90;;;;;;5094481;28;20484;-35
2022/04/11 03:56:27;;;;;;;7.95;2.92;;;5.00;99.90;;;;;;5094886;28;20028;-37
2022/04/11 03:58:53;;;;;;;6.30;3.40;;;5.00;99.90;;;;;;5088086;28;20036;-38
2022/04/11 04:01:19;;;;;;;9.77;3.38;;;5.00;99.90;;;;;;5093237;28;20016;-35
2022/04/11 04:03:44;;;;;;;9.60;3.33;;;5.00;99.90;;;;;;5093965;28;20120;-37
2022/04/11 04:06:11;;;;;;;5.32;3.75;;;5.00;99.90;;;;;;5093693;28;20020;-44
2022/04/11 04:08:36;;;;;;;6.38;3.50;;;4.90;99.90;;;;;;5094009;28;20511;-36
2022/04/11 04:11:02;;;;;;;6.47;3.28;;;4.90;99.90;;;;;;5093460;28;20024;-36
2022/04/11 04:13:27;;;;;;;9.52;4.38;;;5.00;99.90;;;;;;5092277;28;20036;-37
2022/04/11 04:15:53;;;;;;;5.05;3.70;;;4.90;99.90;;;;;;5093122;28;20484;-38
2022/04/11 04:18:19;;;;;;;6.50;3.53;;;5.00;99.90;;;;;;5094637;28;20034;-36
2022/04/11 04:20:45;;;;;;;4.28;3.55;;;5.00;99.90;;;;;;5092502;28;20095;-36
2022/04/11 04:23:10;;;;;;;5.43;3.42;;;5.00;99.90;;;;;;5092118;28;20111;-37
2022/04/11 04:25:36;;;;;;;6.90;3.13;;;5.00;99.90;;;;;;5093553;28;20035;-37
2022/04/11 04:28:02;;;;;;;7.05;4.00;;;5.10;99.90;;;;;;5091999;28;20032;-38
2022/04/11 04:30:31;;;;;;;7.80;4.57;;;5.10;99.90;;;;;;5094083;28;20511;-36
2022/04/11 04:33:00;;;;;;;7.35;3.92;;;5.10;99.90;;;;;;5090244;28;20105;-36
2022/04/11 04:35:27;;;;;;;12.45;4.68;;;5.10;99.90;;;;;;5093711;28;20096;-36
2022/04/11 04:37:53;;;;;;;7.32;3.80;;;5.10;99.90;;;;;;5093258;28;20480;-37
2022/04/11 04:40:19;;;;;;;6.30;4.15;;;5.20;99.90;;;;;;5093088;28;20024;-36
2022/04/11 04:42:45;;;;;;;6.80;4.40;;;5.20;99.90;;;;;;5092375;28;20075;-37
2022/04/11 04:45:12;;;;;;;6.57;4.13;;;5.20;99.90;;;;;;5091198;28;20016;-35
2022/04/11 04:47:38;;;;;;;8.02;4.28;;;5.20;99.90;;;;;;5072376;28;20029;-37
2022/04/11 04:50:04;;;;;;;7.65;4.57;;;5.20;99.90;;;;;;5073263;28;20025;-35
2022/04/11 04:52:30;;;;;;;7.50;3.95;;;5.20;99.90;;;;;;5092055;28;20107;-38
2022/04/11 04:54:55;;;;;;;9.30;4.72;;;5.20;99.90;;;;;;5092935;28;20052;-37
2022/04/11 04:57:39;;;;;;;25.30;4.70;;;5.20;99.90;;;;;;5093632;28;20034;-36
2022/04/11 05:00:07;;;;;;;9.50;5.22;;;5.20;99.90;;;;;;5093904;28;20507;-37
2022/04/11 05:02:39;;;;;;;5.30;3.78;;;5.30;99.90;;;;;;5093885;28;20468;-36
2022/04/11 05:05:10;;;;;;;9.80;4.57;;;5.30;99.90;;;;;;5092699;28;20034;-36
2022/04/11 05:07:36;;;;;;;6.22;4.70;;;5.30;99.90;;;;;;5091692;28;20031;-37
2022/04/11 05:10:04;;;;;;;8.15;4.70;;;5.30;99.90;;;;;;5092972;28;20531;-37
2022/04/11 05:12:29;;;;;;;;;;;5.30;99.90;;;;;;5093344;28;20101;-38
2022/04/11 05:14:55;;;;;;;7.03;4.85;;;5.30;99.90;;;;;;5093715;28;20383;-38
2022/04/11 05:17:22;;;;;;;9.07;4.68;;;5.30;99.90;;;;;;5093374;28;20107;-37
2022/04/11 05:19:48;;;;;;;12.37;5.57;;;5.40;99.90;;;;;;5091923;28;20036;-36
2022/04/11 05:22:14;;;;;;;9.55;5.20;;;5.50;99.90;;;;;;5090322;28;20910;-37
2022/04/11 05:24:39;;;;;;;9.18;4.78;;;5.50;99.90;;;;;;5093381;28;20027;-37
2022/04/11 05:27:05;;;;;;;9.55;5.25;;;5.60;99.90;;;;;;5092836;28;20028;-36
2022/04/11 05:29:30;;;;;;;10.23;5.60;;;5.70;99.90;;;;;;5092501;28;20104;-37
2022/04/11 05:31:56;;;;;;;9.10;5.38;;;5.70;99.90;;;;;;5079645;28;20422;-38
2022/04/11 05:34:21;;;;;;;7.00;5.00;;;5.80;99.90;;;;;;5091750;28;20067;-38
2022/04/11 05:36:47;;;;;;;10.10;5.35;;;5.90;99.90;;;;;;5076242;28;20059;-36
2022/04/11 05:39:13;;;;;;;9.90;5.18;;;5.90;99.90;;;;;;5090449;28;20024;-38
2022/04/11 05:41:38;;;;;;;12.30;5.45;;;6.00;99.90;;;;;;5093482;28;20441;-38
2022/04/11 05:44:04;;;;;;;7.80;4.75;;;6.10;99.90;;;;;;5088569;28;20024;-40
2022/04/11 05:46:30;;;;;;;10.65;5.88;;;6.10;99.90;;;;;;5090721;28;20032;-38
2022/04/11 05:48:55;;;;;;;13.05;6.05;;;6.10;99.90;;;;;;5092200;28;20104;-37
2022/04/11 05:51:21;;;;;;;8.40;5.30;;;6.20;99.90;;;;;;5092516;28;20476;-37
2022/04/11 05:53:46;;;;;;;7.70;5.28;;;6.30;99.90;;;;;;5091568;28;20020;-34
2022/04/11 05:56:12;;;;;;;10.32;5.03;;;6.30;99.90;;;;;;5093010;28;20020;-36
2022/04/11 05:58:38;;;;;;;11.43;5.97;;;6.40;99.90;;;;;;5092022;28;20166;-36
2022/04/11 06:01:03;;;;;;;9.00;5.47;;;6.60;99.90;;;;;;5093017;28;20028;-35
2022/04/11 06:03:29;;;;;;;8.45;5.43;;;6.70;99.90;;;;;;5091615;28;20024;-37
2022/04/11 06:05:55;;;;;;;8.77;5.25;;;6.80;99.90;;;;;;5091926;28;20090;-37
2022/04/11 06:08:20;;;;;;;11.02;5.22;;;7.00;99.90;;;;;;5092697;28;20028;-52
2022/04/11 06:10:46;;;;;;;12.50;6.35;;;7.20;99.90;;;;;;5092836;28;20024;-36
2022/04/11 06:13:12;;;;;;;9.50;5.68;;;7.30;99.90;;;;;;5090350;28;20431;-36
2022/04/11 06:15:38;;;;;;;8.13;4.88;;;7.40;99.90;;;;;;5091695;28;20020;-37
2022/04/11 06:18:03;;;;;;;15.90;5.57;;;7.50;99.90;;;;;;5094385;28;20099;-36
2022/04/11 06:20:29;;;;;;;9.35;5.05;;;7.60;99.90;;;;;;5095664;28;20557;-36
2022/04/11 06:22:54;;;;;;;14.00;6.55;;;7.70;99.90;;;;;;5094769;28;20061;-35
2022/04/11 06:25:20;;;;;;;7.35;5.25;;;7.80;99.90;;;;;;5094056;28;20472;-44
2022/04/11 06:27:46;;;;;;;7.65;5.53;;;8.00;99.90;;;;;;5095098;28;20032;-36
2022/04/11 06:30:12;;;;;;;14.60;5.57;;;8.20;99.90;;;;;;5096142;28;20035;-36
2022/04/11 06:32:38;;;;;;;8.40;5.03;;;8.20;99.90;;;;;;5095615;28;20460;-38
2022/04/11 06:35:04;;;;;;;20.00;5.85;;;8.30;99.90;;;;;;5100150;28;20024;-36
2022/04/11 06:37:29;;;;;;;12.73;5.80;;;8.30;99.90;;;;;;5092924;28;20474;-36
2022/04/11 06:39:55;;;;;;;9.82;5.47;;;8.30;99.90;;;;;;5094722;28;20078;-45
2022/04/11 06:42:21;;;;;;;13.32;5.90;;;8.30;99.90;;;;;;5093782;28;20373;-36
2022/04/11 06:44:47;;;;;;;11.25;6.05;;;8.40;99.90;;;;;;5094629;28;20024;-42
2022/04/11 06:47:13;;;;;;;6.75;4.95;;;8.30;99.90;;;;;;5094716;28;20034;-37
2022/04/11 06:49:39;;;;;;;9.13;4.97;;;8.30;99.90;;;;;;5095223;28;20020;-36
2022/04/11 06:52:06;;;;;;;11.38;6.25;;;8.40;99.90;;;;;;5081404;28;20032;-39
2022/04/11 06:54:32;;;;;;;8.60;6.00;;;8.60;99.90;;;;;;5091561;28;20085;-37
2022/04/11 06:56:58;;;;;;;8.10;5.45;;;8.80;99.90;;;;;;5095836;28;20032;-37
2022/04/11 06:59:24;;;;;;;15.18;6.43;;;9.00;99.90;;;;;;5095147;28;20437;-38
2022/04/11 07:01:51;;;;;;;10.63;6.43;;;9.20;99.90;;;;;;5096094;28;20070;-37
2022/04/11 07:04:21;;;;;;;13.65;5.90;;;9.30;99.90;;;;;;5088626;28;20434;-36
2022/04/11 07:06:47;;;;;;;8.23;5.40;;;9.60;99.90;;;;;;5092085;28;20047;-36
2022/04/11 07:09:13;;;;;;;8.07;5.20;;;9.80;99.90;;;;;;5092971;28;20551;-38
2022/04/11 07:11:38;;;;;;;12.85;5.35;;;9.90;99.90;;;;;;5094177;28;20106;-38
2022/04/11 07:14:05;;;;;;;7.90;4.97;;;10.00;99.90;;;;;;5091413;28;20475;-37
2022/04/11 07:16:31;;;;;;;13.23;5.75;;;10.10;99.90;;;;;;5094435;28;20081;-38
2022/04/11 07:18:57;;;;;;;11.57;4.80;;;10.20;99.90;;;;;;5090672;28;20476;-37
2022/04/11 07:21:22;;;;;;;7.18;4.80;;;10.40;99.90;;;;;;5095574;28;20059;-39
2022/04/11 07:23:48;;;;;;;10.30;5.32;;;10.40;99.90;;;;;;5095469;28;20095;-38
2022/04/11 07:26:13;;;;;;;12.35;4.75;;;10.40;99.90;;;;;;5095408;28;20051;-38
2022/04/11 07:28:40;;;;;;;8.18;5.90;;;10.50;99.90;;;;;;5095426;28;20413;-36
2022/04/11 07:31:06;;;;;;;8.13;5.32;;;10.70;99.90;;;;;;5099069;28;20085;-38
2022/04/11 07:33:31;;;;;;;13.00;5.32;;;10.80;99.90;;;;;;5092776;28;20024;-38
2022/04/11 07:35:57;;;;;;;9.82;5.10;;;10.80;99.90;;;;;;5094023;28;20023;-38
2022/04/11 07:38:22;;;;;;;9.73;4.82;;;10.90;99.90;;;;;;5093128;28;20061;-37
2022/04/11 07:40:49;;;;;;;6.85;5.18;;;10.90;99.90;;;;;;5094548;28;20030;-37
2022/04/11 07:43:15;;;;;;;7.40;4.75;;;10.90;99.90;;;;;;5094471;28;20062;-35
2022/04/11 07:45:41;;;;;;;8.77;5.25;;;10.90;99.90;;;;;;5080346;28;20552;-37
2022/04/11 07:48:07;;;;;;;10.40;4.25;;;11.00;99.90;;;;;;5093370;28;20376;-37
2022/04/11 07:50:33;;;;;;;9.15;4.70;;;11.00;99.90;;;;;;5094595;28;20026;-38
2022/04/11 07:52:59;;;;;;;7.85;4.50;;;11.20;99.90;;;;;;5094130;28;20024;-43
2022/04/11 07:55:24;;;;;;;10.18;5.22;;;11.30;99.90;;;;;;5089156;28;20111;-38
2022/04/11 07:57:50;;;;;;;5.75;4.70;;;11.30;99.90;;;;;;5074477;28;20544;-39
2022/04/11 08:00:16;;;;;;;6.07;4.07;;;11.40;99.90;;;;;;5077392;28;20054;-50
2022/04/11 08:02:42;;;;;;;7.18;5.18;;;11.50;99.90;;;;;;5094526;28;20024;-39
2022/04/11 08:05:08;;;;;;;6.93;3.88;;;11.60;99.90;;;;;;5093853;28;20077;-38
2022/04/11 08:07:35;;;;;;;5.20;4.72;;;11.80;99.90;;;;;;5109142;28;20533;-38
2022/04/11 08:10:03;;;;;;;7.82;4.72;;;11.90;99.90;;;;;;5091594;28;20055;-37
2022/04/11 08:12:28;;;;;;;11.23;5.30;;;12.00;99.90;;;;;;5093603;28;20484;-39
2022/04/11 08:14:54;;;;;;;10.10;5.07;;;12.00;99.90;;;;;;5091364;28;20034;-39
2022/04/11 08:17:19;;;;;;;6.32;4.22;;;12.10;99.90;;;;;;5094385;28;20028;-39
2022/04/11 08:19:45;;;;;;;6.88;3.78;;;12.10;99.90;;;;;;5093213;28;20059;-38
2022/04/11 08:22:11;;;;;;;10.82;4.20;;;12.20;99.90;;;;;;5094339;28;20585;-38
2022/04/11 08:24:36;;;;;;;6.93;3.58;;;12.20;99.90;;;;;;5092992;28;20092;-38
2022/04/11 08:27:02;;;;;;;4.35;3.15;;;12.40;99.90;;;;;;5091466;28;20072;-38
2022/04/11 08:29:28;;;;;;;6.65;3.97;;;12.60;99.90;;;;;;5094328;28;20031;-38
2022/04/11 08:31:53;;;;;;;7.82;4.47;;;12.60;99.90;;;;;;5108196;28;20537;-38
2022/04/11 08:34:19;;;;;;;6.93;4.38;;;12.80;99.90;;;;;;5092992;28;20016;-42
2022/04/11 08:36:45;;;;;;;9.57;4.30;;;12.90;99.90;;;;;;5102616;28;20464;-38
2022/04/11 08:39:11;;;;;;;7.65;4.05;;;13.00;99.90;;;;;;5096562;28;20116;-38
2022/04/11 08:41:37;;;;;;;10.63;4.28;;;13.00;99.90;;;;;;5093172;28;20028;-39
2022/04/11 08:44:05;;;;;;;4.47;3.38;;;13.10;99.90;;;;;;5100607;28;20023;-37
2022/04/11 08:46:32;;;;;;;9.60;4.10;;;13.30;99.80;;;;;;5114296;28;20028;-37
2022/04/11 08:49:02;;;;;;;13.23;3.08;;;13.40;99.00;;;;;;5094322;28;20031;-37
2022/04/11 08:51:31;;;;;;;5.45;3.58;;;13.40;98.90;;;;;;5093028;28;20538;-37
2022/04/11 08:53:59;;;;;;;7.03;4.05;;;13.40;99.30;;;;;;5095543;28;20034;-39
2022/04/11 08:56:25;;;;;;;13.00;7.15;;;13.50;99.50;;;;;;5104254;28;20082;-37
2022/04/11 08:58:51;;;;;;;4.57;3.95;;;13.70;98.70;;;;;;5094227;28;20048;-37
2022/04/11 09:01:17;;;;;;;7.60;3.40;;;13.80;98.60;;;;;;5109813;28;20016;-38
2022/04/11 09:03:43;;;;;;;4.72;2.35;;;13.90;99.40;;;;;;5114120;28;20526;-39
2022/04/11 09:06:13;;;;;;;8.13;2.88;;;14.00;98.90;;;;;;5098144;28;20060;-38
2022/04/11 09:08:50;;;;;;;5.68;3.22;;;14.00;98.70;;;;;;5093614;28;20020;-38
2022/04/11 09:11:37;;;;;;;7.13;2.70;;;14.10;98.30;;;;;;5093077;28;20483;-39
2022/04/11 09:14:06;;;;;;;3.28;2.85;;;14.20;99.00;;;;;;5091447;28;20024;-36
2022/04/11 09:16:52;;;;;;;7.20;3.10;;;14.30;98.10;;;;;;5085822;28;20479;-37
2022/04/11 09:19:25;;;;;;;12.07;7.97;;;14.20;98.70;;;;;;5073235;28;20500;-49
2022/04/11 09:21:54;;;;;;;4.47;3.97;;;14.30;97.70;;;;;;5108550;28;20388;-44
2022/04/11 09:24:24;;;;;;;9.85;3.38;;;14.40;98.60;;;;;;5093349;28;20476;-38
2022/04/11 09:26:54;;;;;;;6.13;2.30;;;14.50;98.60;;;;;;5093451;28;20472;-37
2022/04/11 09:29:20;;;;;;;4.80;2.75;;;14.70;97.60;;;;;;5093051;28;20020;-38
2022/04/11 09:31:46;;;;;;;5.00;2.28;;;14.90;97.20;;;;;;5092956;28;20490;-37
2022/04/11 09:34:25;;;;;;;4.45;2.13;;;14.90;97.80;;;;;;5093089;28;20024;-38
2022/04/11 09:36:53;;;;;;;7.53;2.72;;;14.90;96.50;;;;;;5093180;28;20023;-39
2022/04/11 09:39:21;;;;;;;3.22;2.30;;;14.80;95.60;;;;;;5092822;28;20043;-38
2022/04/11 09:41:47;;;;;;;4.05;2.28;;;14.70;96.10;;;;;;5093202;28;20052;-39
2022/04/11 09:44:30;;;;;;;7.40;2.13;;;14.70;96.90;;;;;;5096598;28;20036;-38
2022/04/11 09:46:58;;;;;;;4.53;2.17;;;14.80;96.10;;;;;;5093012;28;20024;-38
2022/04/11 09:49:43;;;;;;;5.05;2.38;;;14.80;95.60;;;;;;5094111;28;20030;-34
2022/04/11 09:52:13;;;;;;;7.88;2.13;;;14.80;95.90;;;;;;5096752;28;20024;-37
2022/04/11 09:54:47;;;;;;;3.13;2.50;;;14.90;95.00;;;;;;5102409;28;20043;-37
2022/04/11 09:57:18;;;;;;;5.18;2.33;;;14.90;94.40;;;;;;5098243;28;20035;-33
2022/04/11 09:59:45;;;;;;;6.45;3.13;;;14.80;96.00;;;;;;5098886;28;20024;-38
2022/04/11 10:02:17;;;;;;;5.80;3.63;;;15.00;95.50;;;;;;5098504;28;20024;-35
2022/04/11 10:04:46;;;;;;;6.88;3.05;;;15.10;95.10;;;;;;5098529;28;20489;-41
2022/04/11 10:07:12;;;;;;;5.90;3.13;;;15.20;95.10;;;;;;5101672;28;20081;-46
2022/04/11 10:09:43;;;;;;;6.05;3.75;;;15.50;95.40;;;;;;5102271;28;20028;-37
2022/04/11 10:12:09;;;;;;;3.67;3.30;;;15.70;95.90;;;;;;5095716;28;20105;-37
2022/04/11 10:14:35;;;;;;;3.13;2.88;;;16.00;95.40;;;;;;5094744;28;20052;-38
2022/04/11 10:17:03;;;;;;;5.93;3.75;;;16.00;95.10;;;;;;5098854;28;20150;-38
2022/04/11 10:19:33;;;;;;;6.18;3.65;;;16.20;93.90;;;;;;5099316;28;20039;-36
2022/04/11 10:22:06;;;;;;;8.15;4.10;;;16.30;93.50;;;;;;5097984;28;20494;-37
2022/04/11 10:24:45;;;;;;;9.23;4.32;;;16.40;93.20;;;;;;5093783;28;20076;-38
2022/04/11 10:27:15;;;;;;;4.90;3.70;;;16.30;92.00;;;;;;5094601;28;20043;-40
2022/04/11 10:29:41;;;;;;;4.40;3.55;;;16.10;92.50;;;;;;5094912;28;20022;-38
2022/04/11 10:32:20;;;;;;;9.23;4.05;;;16.10;92.70;;;;;;5095113;28;20024;-39
2022/04/11 10:34:46;;;;;;;7.20;3.53;;;16.30;92.20;;;;;;5093745;28;20020;-40
2022/04/11 10:37:11;;;;;;;7.57;3.80;;;16.30;92.30;;;;;;5095538;28;20464;-40
2022/04/11 10:39:39;;;;;;;4.75;3.95;;;16.20;92.90;;;;;;5088904;28;20026;-38
2022/04/11 10:42:09;;;;;;;7.88;3.58;;;16.30;91.70;;;;;;5091445;28;20020;-39
2022/04/11 10:44:42;;;;;;;10.55;7.53;;;16.20;91.40;;;;;;5082677;28;20473;-39
2022/04/11 10:47:07;;;;;;;5.22;4.38;;;16.10;91.40;;;;;;5108034;28;20023;-40
2022/04/11 10:49:48;;;;;;;8.20;3.22;;;16.10;92.20;;;;;;5093712;28;20027;-41
2022/04/11 10:52:33;;;;;;;5.25;3.60;;;16.10;91.50;;;;;;5095785;28;20149;-38
2022/04/11 10:55:11;;;;;;;7.50;5.15;;;16.00;91.60;;;;;;5080793;28;20098;-42
2022/04/11 10:57:45;;;;;;;6.78;4.25;;;15.70;92.00;;;;;;5085511;28;20054;-35
2022/04/11 11:00:15;;;;;;;6.22;4.30;;;15.70;92.80;;;;;;5096082;28;20368;-40
2022/04/11 11:02:50;;;;;;;6.65;3.38;;;15.60;92.40;;;;;;5095553;28;20024;-39
2022/04/11 11:05:42;;;;;;;4.63;3.42;;;15.60;92.80;;;;;;5087904;28;20024;-39
2022/04/11 11:08:14;;;;;;;9.77;4.10;;;15.70;93.40;;;;;;5086175;28;20483;-39
2022/04/11 11:10:57;;;;;;;3.25;2.47;;;15.90;92.70;;;;;;5092994;28;20031;-36
2022/04/11 11:13:34;;;;;;;10.27;3.67;;;15.90;93.00;;;;;;5090636;28;20028;-36
2022/04/11 11:16:03;;;;;;;;;;;15.90;92.10;;;;;;5093601;28;20052;-36
2022/04/11 11:18:48;;;;;;;3.97;3.50;;;15.70;92.10;;;;;;5083486;28;19919;-38
2022/04/11 11:21:14;;;;;;;5.30;2.90;;;15.70;93.10;;;;;;5083907;28;20050;-37
2022/04/11 11:23:40;;;;;;;4.03;3.30;;;15.90;92.80;;;;;;5094472;28;20468;-38
2022/04/11 11:26:13;;;;;;;5.78;3.42;;;16.00;92.10;;;;;;5094846;28;20119;-38
2022/04/11 11:28:44;;;;;;;7.13;3.47;;;16.00;91.60;;;;;;5090535;28;20372;-38
2022/04/11 11:31:11;;;;;;;3.75;3.17;;;16.00;92.90;;;;;;5088550;28;20035;-37
2022/04/11 11:33:39;;;;;;;5.70;3.20;;;16.10;93.10;;;;;;5092058;28;20043;-39
2022/04/11 11:36:09;;;;;;;5.60;3.30;;;16.20;92.20;;;;;;5077038;28;20105;-37
2022/04/11 11:38:35;;;;;;;3.95;2.65;;;16.20;91.90;;;;;;5095385;28;20028;-38
2022/04/11 11:41:03;;;;;;;5.05;3.22;;;16.00;92.60;;;;;;5090746;28;20435;-38
2022/04/11 11:43:30;;;;;;;8.45;4.40;;;16.00;92.50;;;;;;5095017;28;20483;-38
2022/04/11 11:46:03;;;;;;;3.83;2.92;;;15.90;92.40;;;;;;5094886;28;20468;-38
2022/04/11 11:48:32;;;;;;;4.82;3.53;;;15.80;93.00;;;;;;5095026;28;20027;-37
2022/04/11 11:51:00;;;;;;;7.90;2.95;;;15.80;93.90;;;;;;5093710;28;20089;-38
2022/04/11 11:53:26;;;;;;;;;;;16.00;93.50;;;;;;5095379;28;20032;-36
2022/04/11 11:55:59;;;;;;;6.40;3.33;;;16.20;92.80;;;;;;5095184;28;20378;-39
2022/04/11 11:58:39;;;;;;;5.28;3.30;;;16.20;93.40;;;;;;5092335;28;20042;-38
2022/04/11 12:01:09;;;;;;;4.97;2.70;;;16.20;92.10;;;;;;5091145;28;20491;-36
2022/04/11 12:06:26;;;;;;;4.75;2.80;;;16.30;92.60;;;;;;5094719;28;20035;-39
2022/04/11 12:09:01;;;;;;;4.15;2.40;;;16.50;92.60;;;;;;5094534;28;20472;-38
2022/04/11 12:14:12;;;;;;;5.40;2.65;;;16.50;91.10;;;;;;5094727;28;20089;-37
2022/04/11 12:16:54;;;;;;;7.05;3.13;;;16.20;90.80;;;;;;5094277;28;20492;-38
2022/04/11 12:19:38;;;;;;;3.53;2.30;;;16.20;90.90;;;;;;5073577;28;20090;-38
2022/04/11 12:22:14;;;;;;;4.10;2.80;;;16.30;92.00;;;;;;5075912;28;20036;-37
2022/04/11 12:24:40;;;;;;;7.00;2.88;;;16.30;92.10;;;;;;5074086;28;20032;-38
2022/04/11 12:27:10;;;;;;;8.55;2.63;;;16.40;91.80;;;;;;5081394;28;20034;-38
2022/04/11 12:29:40;;;;;;;3.78;2.80;;;16.30;91.60;;;;;;5083408;28;20458;-38
2022/04/11 12:32:12;;;;;;;3.45;2.08;;;16.30;91.00;;;;;;5094238;28;20488;-38
2022/04/11 12:34:39;;;;;;;5.13;2.63;;;16.30;91.90;;;;;;5095140;28;20065;-35
2022/04/11 12:37:07;;;;;;;8.98;6.28;;;16.40;91.00;;;;;;5100747;28;20368;-34
2022/04/11 12:39:56;;;;;;;6.63;2.60;;;16.40;90.90;;;;;;5097139;28;20024;-36
2022/04/11 12:42:24;;;;;;;5.40;2.92;;;16.50;91.30;;;;;;5097848;28;20058;-37
2022/04/11 12:45:03;;;;;;;3.72;2.65;;;16.60;91.60;;;;;;5092550;28;20024;-39
2022/04/11 12:47:29;;;;;;;4.00;2.35;;;16.80;92.30;;;;;;5097981;28;20028;-37
2022/04/11 12:49:55;;;;;;;4.15;2.30;;;16.90;91.80;;;;;;5093008;28;20038;-39
2022/04/11 12:52:23;;;;;;;5.47;2.97;;;17.00;90.60;;;;;;5093287;28;20027;-38
2022/04/11 12:55:07;;;;;;;3.97;2.50;;;17.00;91.60;;;;;;5099939;28;20019;-38
2022/04/11 12:57:34;;;;;;;5.25;2.80;;;17.00;90.70;;;;;;5088232;28;20039;-38
2022/04/11 13:00:15;;;;;;;2.97;2.67;;;17.00;90.40;;;;;;5092696;28;20119;-37
2022/04/11 13:02:41;;;;;;;4.85;4.07;;;17.10;91.40;;;;;;5094793;28;20510;-41